Latest Weather Observations for Oakey

IDQ60801

Issued at 7:32 pm EST Friday 16 November 2018 (issued every 10 minutes, with the page automatically refreshed every 10 minutes)

About weather observations | Map of weather stations | Latest weather observations for QLD | Other Formats
Station Details ID: 041359 Name: OAKEY AERO Lat: -27.40 Lon: 151.74 Height: 405.69 m
Data from the previous 72 hours. | See also: Recent months at Oakey
Date/Time
EST
Temp
°C
App
Temp
°C
Dew
Point
°C
Rel
Hum
%
Delta-T
°C
Wind Press
QNH
hPa
Press
MSL
hPa
Rain since
9am
mm
Dir  Spd
km/h
Gust
km/h
Spd
kts
Gust
kts
16/07:30pm 25.3 21.3 15.3 54 6.1 E 30 35 16 19 1014.2 1012.4 0.0
16/07:00pm 25.8 24.1 14.6 50 6.8 E 17 20 9 11 1013.7 1011.9 0.0
16/06:30pm 26.6 24.2 14.4 47 7.4 ENE 20 24 11 13 1013.2 1011.3 0.0
16/06:00pm 27.7 24.9 14.3 43 8.2 NE 22 28 12 15 1013.0 1011.1 0.0
16/05:30pm 28.6 25.2 14.8 43 8.5 ENE 26 33 14 18 1012.7 1010.9 0.0
16/05:00pm 30.7 28.2 11.1 30 11.5 N 15 20 8 11 1012.6 1010.8 0.0
16/04:30pm 32.4 29.3 10.4 26 12.9 WNW 17 24 9 13 1012.4 1010.6 0.0
16/04:00pm 31.6 30.0 10.3 27 12.4 N 9 15 5 8 1012.5 1010.7 0.0
16/03:30pm 30.7 29.4 10.1 28 11.9 NNE 7 13 4 7 1012.7 1010.9 0.0
16/03:00pm 31.0 29.1 10.4 28 12.0 WSW 11 20 6 11 1013.1 1011.2 0.0
16/02:30pm 30.8 29.9 11.2 30 11.5 ENE 7 11 4 6 1013.5 1011.6 0.0
16/02:00pm 31.3 29.7 11.7 30 11.6 WSW 11 17 6 9 1014.1 1012.3 0.0
16/01:30pm 29.8 28.3 11.8 33 10.6 N 11 19 6 10 1014.5 1012.7 0.0
16/01:00pm 30.2 29.1 12.1 32 10.8 N 9 22 5 12 1015.1 1013.3 0.0
16/12:30pm 29.3 28.9 13.1 37 9.8 NNW 7 11 4 6 1015.7 1013.8 0.0
16/12:00pm 29.0 28.7 13.2 37 9.5 WNW 7 15 4 8 1016.2 1014.4 0.0
16/11:30am 29.2 28.8 15.3 42 8.7 W 11 19 6 10 1016.7 1014.9 0.0
16/11:00am 28.7 28.7 14.1 40 8.9 SSE 7 17 4 9 1017.2 1015.4 0.0
16/10:30am 28.7 28.4 14.5 42 8.7 N 9 17 5 9 1017.6 1015.8 0.0
16/10:00am 27.2 26.0 13.9 44 8.0 N 13 20 7 11 1018.0 1016.3 0.0
16/09:30am 26.5 24.9 13.9 45 7.6 NNE 15 22 8 12 1018.2 1016.4 0.0
16/09:00am 26.4 25.7 15.4 50 6.8 NNE 13 20 7 11 1018.2 1016.4 0.0
16/08:30am 24.9 23.6 14.7 53 6.2 NNE 15 22 8 12 1018.3 1016.5 0.0
16/08:00am 24.1 23.2 15.9 60 5.1 NNE 15 20 8 11 1018.4 1016.6 0.0
16/07:30am 23.2 21.8 15.5 62 4.7 NE 17 24 9 13 1018.6 1016.8 0.0
16/07:00am 22.0 20.7 15.8 68 3.8 NE 17 22 9 12 1018.5 1016.7 0.0
16/06:30am 20.7 19.5 16.1 75 2.8 E 17 20 9 11 1018.5 1016.7 0.0
16/06:00am 19.5 18.8 16.3 82 1.9 ENE 15 19 8 10 1018.3 1016.5 0.0
16/05:30am 18.1 17.6 15.9 87 1.3 ENE 13 15 7 8 1018.2 1016.4 0.0
16/05:00am 17.6 16.5 15.4 87 1.3 E 15 17 8 9 1017.8 1016.0 0.0
16/04:30am 17.7 17.0 15.3 86 1.4 ENE 13 17 7 9 1017.5 1015.7 0.0
16/04:00am 18.0 17.0 15.6 86 1.4 ENE 15 19 8 10 1017.1 1015.3 0.0
16/03:30am 18.3 17.0 15.9 86 1.4 ENE 17 22 9 12 1016.9 1015.1 0.0
16/03:00am 18.3 17.3 15.7 85 1.6 E 15 17 8 9 1016.8 1015.0 0.0
16/02:30am 18.6 16.9 15.8 84 1.7 E 19 24 10 13 1016.8 1015.0 0.0
16/02:00am 18.9 17.7 16.0 83 1.8 E 17 22 9 12 1016.9 1015.1 0.0
16/01:30am 19.3 17.7 16.0 81 2.0 E 19 26 10 14 1017.0 1015.2 0.0
16/01:00am 19.6 18.0 15.9 79 2.2 E 19 26 10 14 1017.4 1015.6 0.0
16/12:30am 20.3 18.1 15.9 76 2.7 E 22 30 12 16 1017.5 1015.7 0.0
16/12:00am 21.0 20.5 15.8 72 3.2 E 13 17 7 9 1017.7 1015.9 0.0
 
Date/Time
EST
Temp
°C
App
Temp
°C
Dew
Point
°C
Rel
Hum
%
Delta-T
°C
Wind Press
QNH
hPa
Press
MSL
hPa
Rain since
9am
mm
Dir  Spd
km/h
Gust
km/h
Spd
kts
Gust
kts
15/11:30pm 21.3 19.6 15.8 71 3.4 E 19 22 10 12 1017.8 1016.0 0.0
15/11:00pm 21.6 19.9 15.7 69 3.6 E 19 22 10 12 1017.9 1016.1 0.0
15/10:30pm 21.9 20.1 15.5 67 3.9 E 19 20 10 11 1017.9 1016.1 0.0
15/10:00pm 23.0 21.5 15.3 62 4.7 E 17 22 9 12 1018.2 1016.4 0.0
15/09:30pm 22.9 20.8 15.2 62 4.7 E 20 26 11 14 1017.9 1016.1 0.0
15/09:00pm 23.4 21.0 13.8 54 5.7 E 19 26 10 14 1017.4 1015.6 0.0
15/08:30pm 23.6 21.5 12.3 49 6.6 ENE 15 17 8 9 1017.1 1015.3 0.0
15/08:00pm 24.2 21.9 11.9 46 7.1 ENE 15 19 8 10 1016.9 1015.1 0.0
15/07:30pm 25.2 22.6 12.1 44 7.6 ENE 17 20 9 11 1016.5 1014.7 0.0
15/07:00pm 26.0 23.1 12.8 44 7.8 ENE 20 24 11 13 1016.3 1014.5 0.0
15/06:30pm 26.8 23.9 12.8 42 8.3 ENE 20 22 11 12 1016.2 1014.4 0.0
15/06:00pm 27.2 24.7 12.4 40 8.7 NE 17 22 9 12 1015.8 1013.9 0.0
15/05:30pm 28.2 25.3 12.9 38 9.1 NE 20 24 11 13 1015.3 1013.5 0.0
15/05:00pm 28.8 27.3 13.1 38 9.4 ENE 13 17 7 9 1015.1 1013.3 0.0
15/04:30pm 28.5 25.8 12.8 38 9.4 NE 19 22 10 12 1015.1 1013.3 0.0
15/04:00pm 28.6 26.2 12.5 37 9.6 NE 17 20 9 11 1015.2 1013.4 0.0
15/03:30pm 29.2 27.5 12.6 36 9.9 E 13 20 7 11 1015.3 1013.5 0.0
15/03:00pm 29.5 29.0 12.0 34 10.4 ESE 6 15 3 8 1015.4 1013.6 0.0
15/02:30pm 30.3 28.5 10.8 30 11.4 N 11 15 6 8 1015.7 1013.8 0.0
15/02:00pm 30.1 29.0 12.1 33 10.7 NW 9 19 5 10 1016.1 1014.3 0.0
15/01:30pm 29.2 28.3 11.3 33 10.5 NW 7 15 4 8 1016.5 1014.7 0.0
15/01:00pm 28.7 27.0 12.6 37 9.6 NW 13 20 7 11 1016.9 1015.1 0.0
15/12:30pm 28.2 27.7 12.5 37 9.3 SE 7 11 4 6 1017.2 1015.4 0.0
15/12:00pm 28.2 26.1 12.5 37 9.3 W 15 24 8 13 1017.8 1016.0 0.0
15/11:30am 28.7 28.3 13.0 38 9.4 SW 7 13 4 7 1018.3 1016.5 0.0
15/11:00am 26.6 26.0 12.3 41 8.4 N 7 17 4 9 1018.8 1017.0 0.0
15/10:30am 27.0 26.2 13.0 42 8.3 SSW 9 17 5 9 1019.3 1017.5 0.0
15/10:00am 26.6 26.2 14.0 46 7.6 NW 9 15 5 8 1019.6 1017.8 0.0
15/09:30am 26.4 25.8 14.5 48 7.2 NE 11 17 6 9 1019.8 1018.0 0.0
15/09:00am 24.7 23.9 13.9 51 6.5 NE 11 20 6 11 1019.9 1018.1 0.0
15/08:30am 24.2 22.9 14.9 56 5.6 NE 15 22 8 12 1019.9 1018.1 0.0
15/08:00am 23.1 21.8 15.7 63 4.5 NE 17 24 9 13 1019.8 1018.0 0.0
15/07:30am 22.2 21.0 16.2 69 3.7 ENE 17 20 9 11 1019.6 1017.8 0.0
15/07:00am 21.0 19.9 16.4 75 2.8 NE 17 20 9 11 1019.6 1017.8 0.0
15/06:30am 19.7 19.3 16.2 80 2.1 NE 13 20 7 11 1019.3 1017.5 0.0
15/06:00am 18.2 17.3 15.8 86 1.4 E 15 17 8 9 1018.8 1017.0 0.0
15/05:30am 16.6 16.8 15.8 95 0.5 E 9 13 5 7 1018.6 1016.8 0.0
15/05:00am 14.7 13.8 13.6 93 0.6 ESE 11 13 6 7 1018.2 1016.4 0.0
15/04:30am 14.9 14.0 13.8 93 0.6 ESE 11 11 6 6 1017.5 1015.7 0.0
15/04:00am 15.0 14.5 13.7 92 0.7 E 9 11 5 6 1017.3 1015.5 0.0
15/03:30am 15.1 14.5 13.6 91 0.9 ESE 9 11 5 6 1017.0 1015.2 0.0
15/03:00am 15.4 14.9 13.8 90 0.9 ESE 9 11 5 6 1017.0 1015.2 0.0
15/02:30am 15.9 14.8 14.3 90 0.9 ESE 13 15 7 8 1016.9 1015.1 0.0
15/02:00am 16.4 15.5 14.8 90 0.9 E 13 15 7 8 1017.0 1015.2 0.0
15/01:30am 16.5 16.2 14.3 87 1.3 E 9 13 5 7 1017.4 1015.6 0.0
15/01:00am 17.4 17.1 14.5 83 1.7 E 9 11 5 6 1017.8 1016.0 0.0
15/12:30am 18.5 17.7 15.2 81 2.0 ENE 13 17 7 9 1018.0 1016.3 0.0
15/12:00am 19.2 18.1 15.3 78 2.3 ENE 15 20 8 11 1018.2 1016.4 0.0
 
Date/Time
EST
Temp
°C
App
Temp
°C
Dew
Point
°C
Rel
Hum
%
Delta-T
°C
Wind Press
QNH
hPa
Press
MSL
hPa
Rain since
9am
mm
Dir  Spd
km/h
Gust
km/h
Spd
kts
Gust
kts
14/11:30pm 20.0 18.5 15.4 75 2.8 ENE 17 20 9 11 1018.3 1016.5 0.0
14/11:00pm 20.4 18.9 15.4 73 3.0 E 17 20 9 11 1018.4 1016.6 0.0
14/10:30pm 20.8 19.3 15.4 71 3.3 ENE 17 20 9 11 1018.5 1016.7 0.0
14/10:00pm 21.5 19.6 15.1 67 3.9 ENE 19 24 10 13 1018.7 1016.9 0.0
14/09:30pm 22.1 19.5 15.0 64 4.3 ENE 22 28 12 15 1018.7 1016.9 0.0
14/09:00pm 22.4 19.8 15.0 63 4.5 NE 22 30 12 16 1018.6 1016.8 0.0
14/08:30pm 22.7 20.5 14.8 61 4.8 NE 20 26 11 14 1018.2 1016.4 0.0
14/08:00pm 23.5 20.8 14.5 57 5.4 ENE 22 30 12 16 1017.7 1015.9 0.0
14/07:30pm 23.9 21.0 14.0 54 5.9 ENE 22 30 12 16 1017.3 1015.5 0.0
14/07:00pm 24.1 20.6 8.9 38 8.3 E 17 19 9 10 1017.0 1015.2 0.0
14/06:30pm 24.2 21.3 8.2 36 8.7 ESE 13 17 7 9 1017.0 1015.2 0.0
14/06:00pm 25.9 22.3 8.4 33 9.6 ESE 17 22 9 12 1016.7 1014.9 0.0
14/05:30pm 27.4 24.2 8.3 30 10.6 ESE 15 20 8 11 1016.6 1014.8 0.0
14/05:00pm 27.3 24.5 8.7 31 10.3 E 13 19 7 10 1016.4 1014.6 0.0
14/04:30pm 27.4 25.4 8.8 31 10.4 E 9 19 5 10 1016.3 1014.5 0.0
14/04:00pm 27.8 25.1 9.1 31 10.5 SE 13 20 7 11 1016.3 1014.5 0.0
14/03:30pm 27.9 27.0 9.2 31 10.5 WSW 4 11 2 6 1016.3 1014.5 0.0
14/03:00pm 28.1 25.9 9.4 31 10.5 NNE 11 17 6 9 1016.5 1014.7 0.0
14/02:30pm 27.6 25.3 9.0 31 10.4 E 11 19 6 10 1016.6 1014.8 0.0
14/02:00pm 27.9 25.4 9.7 32 10.3 NW 13 19 7 10 1016.7 1014.9 0.0
14/01:30pm 26.8 25.3 9.2 33 9.8 WNW 7 11 4 6 1017.1 1015.3 0.0
14/01:00pm 26.5 25.4 10.6 37 9.1 N 7 13 4 7 1017.5 1015.7 0.0
14/12:30pm 26.2 23.6 10.8 38 8.8 NE 15 22 8 12 1017.8 1016.0 0.0
14/12:00pm 26.4 24.6 10.9 38 8.9 NE 11 20 6 11 1018.2 1016.4 0.0
14/11:30am 25.9 22.4 10.9 39 8.6 NE 20 28 11 15 1018.7 1016.9 0.0
14/11:00am 25.9 23.6 11.6 40 8.3 NNE 15 28 8 15 1018.9 1017.1 0.0
14/10:30am 24.5 21.3 11.8 45 7.3 NNE 20 30 11 16 1018.9 1017.1 0.0
14/10:00am 24.9 21.7 11.8 44 7.6 NE 20 28 11 15 1018.9 1017.1 0.0
14/09:30am 23.1 20.0 12.1 50 6.3 NE 20 33 11 18 1019.0 1017.2 0.0
14/09:00am 22.9 19.8 13.4 55 5.6 NE 22 32 12 17 1019.3 1017.5 0.0
14/08:30am 23.3 20.7 13.8 55 5.6 NE 20 33 11 18 1019.4 1017.6 0.0
14/08:00am 22.2 19.5 14.6 62 4.5 E 22 32 12 17 1019.4 1017.6 0.0
14/07:30am 20.7 18.1 14.8 69 3.5 ENE 22 30 12 16 1019.3 1017.5 0.0
14/07:00am 19.8 17.7 14.8 73 3.0 ENE 19 24 10 13 1019.1 1017.3 0.0
14/06:30am 18.4 16.9 14.3 77 2.4 E 15 20 8 11 1018.8 1017.0 0.0
14/06:00am 16.6 16.0 13.5 82 1.8 ESE 9 11 5 6 1018.5 1016.7 0.0
14/05:30am 15.2 14.3 13.6 90 0.9 ENE 11 15 6 8 1018.2 1016.4 0.0
14/05:00am 14.4 12.9 13.1 92 0.7 E 13 15 7 8 1017.5 1015.7 0.0
14/04:30am 14.5 13.0 13.0 91 0.8 E 13 15 7 8 1017.3 1015.5 0.0
14/04:00am 14.7 13.6 13.1 90 0.9 ENE 11 13 6 7 1017.3 1015.5 0.0
14/03:30am 15.0 13.9 13.0 88 1.1 ENE 11 17 6 9 1017.0 1015.2 0.0
14/03:00am 15.2 13.3 13.1 87 1.2 ENE 15 20 8 11 1016.9 1015.1 0.0
14/02:30am 15.6 12.8 13.3 86 1.3 ENE 20 24 11 13 1016.9 1015.1 0.0
14/02:00am 15.6 12.8 13.1 85 1.4 ENE 20 24 11 13 1016.9 1015.1 0.0
14/01:30am 15.8 12.5 12.9 83 1.6 ENE 22 28 12 15 1017.1 1015.3 0.0
14/01:00am 16.2 12.2 12.9 81 1.9 ENE 26 33 14 18 1017.4 1015.6 0.0
14/12:30am 16.3 13.0 12.8 80 2.0 ENE 22 28 12 15 1017.8 1016.0 0.0
14/12:00am 16.5 13.5 12.5 77 2.2 E 20 26 11 14 1018.2 1016.4 0.0
 
Date/Time
EST
Temp
°C
App
Temp
°C
Dew
Point
°C
Rel
Hum
%
Delta-T
°C
Wind Press
QNH
hPa
Press
MSL
hPa
Rain since
9am
mm
Dir  Spd
km/h
Gust
km/h
Spd
kts
Gust
kts
13/11:30pm 16.8 13.8 12.1 74 2.6 E 19 22 10 12 1018.8 1017.0 0.0
13/11:00pm 17.1 14.8 11.6 70 3.0 E 15 20 8 11 1019.2 1017.4 0.0
13/10:30pm 17.6 14.3 11.6 68 3.3 E 20 24 11 13 1019.2 1017.4 0.0
13/10:00pm 17.9 14.6 11.7 67 3.5 E 20 26 11 14 1019.2 1017.4 0.0
13/09:30pm 18.5 15.3 11.8 65 3.8 E 20 28 11 15 1019.4 1017.6 0.0
13/09:00pm 19.0 15.5 12.3 65 3.8 ENE 22 30 12 16 1019.2 1017.4 0.0
13/08:30pm 19.6 15.9 12.6 64 4.0 ENE 24 30 13 16 1018.9 1017.1 0.0
13/08:00pm 19.8 17.1 11.8 60 4.5 ENE 17 22 9 12 1018.8 1017.0 0.0

Other Formats:

Comma delimited format used in spreadsheet applications
http://www.bom.gov.au/fwo/IDQ60801/IDQ60801.94552.axf

JavaScript Object Notation format (JSON) in row-major order
http://www.bom.gov.au/fwo/IDQ60801/IDQ60801.94552.json